sensor_id;sensor_type;location;lat;lon;timestamp;temperature;humidity
2363;DHT22;64265;51.664;7.626;2023-11-22T00:02:24;21.50;91.60
2363;DHT22;64265;51.664;7.626;2023-11-22T00:04:54;21.50;91.60
2363;DHT22;64265;51.664;7.626;2023-11-22T00:07:21;21.50;91.60
2363;DHT22;64265;51.664;7.626;2023-11-22T00:09:47;21.50;91.60
2363;DHT22;64265;51.664;7.626;2023-11-22T00:12:14;21.40;91.60
2363;DHT22;64265;51.664;7.626;2023-11-22T00:14:44;21.50;92.00
2363;DHT22;64265;51.664;7.626;2023-11-22T00:17:11;21.50;91.60
2363;DHT22;64265;51.664;7.626;2023-11-22T00:19:38;21.40;91.50
2363;DHT22;64265;51.664;7.626;2023-11-22T00:22:05;21.40;91.50
2363;DHT22;64265;51.664;7.626;2023-11-22T00:24:38;21.40;91.60
2363;DHT22;64265;51.664;7.626;2023-11-22T00:27:05;21.40;91.60
2363;DHT22;64265;51.664;7.626;2023-11-22T00:29:32;21.40;91.60
2363;DHT22;64265;51.664;7.626;2023-11-22T00:32:00;21.40;91.60
2363;DHT22;64265;51.664;7.626;2023-11-22T00:34:27;21.40;91.60
2363;DHT22;64265;51.664;7.626;2023-11-22T00:36:53;21.40;91.60
2363;DHT22;64265;51.664;7.626;2023-11-22T00:39:20;21.40;91.60
2363;DHT22;64265;51.664;7.626;2023-11-22T00:41:47;21.40;91.60
2363;DHT22;64265;51.664;7.626;2023-11-22T00:44:14;21.40;91.60
2363;DHT22;64265;51.664;7.626;2023-11-22T00:46:41;21.40;92.00
2363;DHT22;64265;51.664;7.626;2023-11-22T00:49:12;21.40;91.60
2363;DHT22;64265;51.664;7.626;2023-11-22T00:51:39;21.30;91.60
2363;DHT22;64265;51.664;7.626;2023-11-22T00:54:06;21.30;91.60
2363;DHT22;64265;51.664;7.626;2023-11-22T00:56:33;21.30;91.60
2363;DHT22;64265;51.664;7.626;2023-11-22T00:58:59;21.40;91.70
2363;DHT22;64265;51.664;7.626;2023-11-22T01:01:29;21.30;91.70
2363;DHT22;64265;51.664;7.626;2023-11-22T01:03:56;21.30;91.60
2363;DHT22;64265;51.664;7.626;2023-11-22T01:06:25;21.30;91.60
2363;DHT22;64265;51.664;7.626;2023-11-22T01:08:52;21.30;91.60
2363;DHT22;64265;51.664;7.626;2023-11-22T01:11:19;21.30;91.70
2363;DHT22;64265;51.664;7.626;2023-11-22T01:13:46;21.30;91.60
2363;DHT22;64265;51.664;7.626;2023-11-22T01:16:13;21.30;91.60
2363;DHT22;64265;51.664;7.626;2023-11-22T01:18:40;21.30;91.70
2363;DHT22;64265;51.664;7.626;2023-11-22T01:21:06;21.30;91.70
2363;DHT22;64265;51.664;7.626;2023-11-22T01:23:35;21.30;91.70
2363;DHT22;64265;51.664;7.626;2023-11-22T01:26:01;21.30;91.70
2363;DHT22;64265;51.664;7.626;2023-11-22T01:28:29;21.30;91.70
2363;DHT22;64265;51.664;7.626;2023-11-22T01:30:59;21.30;91.60
2363;DHT22;64265;51.664;7.626;2023-11-22T01:33:26;21.30;91.70
2363;DHT22;64265;51.664;7.626;2023-11-22T01:35:53;21.20;91.70
2363;DHT22;64265;51.664;7.626;2023-11-22T01:38:20;21.20;91.70
2363;DHT22;64265;51.664;7.626;2023-11-22T01:40:48;21.20;91.70
2363;DHT22;64265;51.664;7.626;2023-11-22T01:43:17;21.20;91.60
2363;DHT22;64265;51.664;7.626;2023-11-22T01:45:45;21.20;91.70
2363;DHT22;64265;51.664;7.626;2023-11-22T01:48:12;21.20;91.70
2363;DHT22;64265;51.664;7.626;2023-11-22T01:50:39;21.20;91.70
2363;DHT22;64265;51.664;7.626;2023-11-22T01:53:07;21.20;91.60
2363;DHT22;64265;51.664;7.626;2023-11-22T01:55:34;21.20;91.70
2363;DHT22;64265;51.664;7.626;2023-11-22T01:58:02;21.20;91.70
2363;DHT22;64265;51.664;7.626;2023-11-22T02:00:32;21.20;91.70
2363;DHT22;64265;51.664;7.626;2023-11-22T02:03:02;21.20;91.70
2363;DHT22;64265;51.664;7.626;2023-11-22T02:05:29;21.20;91.70
2363;DHT22;64265;51.664;7.626;2023-11-22T02:07:56;21.20;91.70
2363;DHT22;64265;51.664;7.626;2023-11-22T02:10:23;21.20;91.70
2363;DHT22;64265;51.664;7.626;2023-11-22T02:12:50;21.20;91.70
2363;DHT22;64265;51.664;7.626;2023-11-22T02:15:18;21.20;91.70
2363;DHT22;64265;51.664;7.626;2023-11-22T02:17:45;21.20;91.70
2363;DHT22;64265;51.664;7.626;2023-11-22T02:20:12;21.20;91.70
2363;DHT22;64265;51.664;7.626;2023-11-22T02:22:43;21.20;91.70
2363;DHT22;64265;51.664;7.626;2023-11-22T02:25:11;21.20;91.70
2363;DHT22;64265;51.664;7.626;2023-11-22T02:27:38;21.20;91.70
2363;DHT22;64265;51.664;7.626;2023-11-22T02:30:06;21.10;91.70
2363;DHT22;64265;51.664;7.626;2023-11-22T02:32:34;21.10;91.70
2363;DHT22;64265;51.664;7.626;2023-11-22T02:35:01;21.10;91.70
2363;DHT22;64265;51.664;7.626;2023-11-22T02:37:30;21.10;91.70
2363;DHT22;64265;51.664;7.626;2023-11-22T02:40:02;21.10;91.70
2363;DHT22;64265;51.664;7.626;2023-11-22T02:42:32;21.10;91.70
2363;DHT22;64265;51.664;7.626;2023-11-22T02:44:59;21.10;91.70
2363;DHT22;64265;51.664;7.626;2023-11-22T02:47:27;21.10;91.70
2363;DHT22;64265;51.664;7.626;2023-11-22T02:49:53;21.10;91.80
2363;DHT22;64265;51.664;7.626;2023-11-22T02:52:20;21.10;91.70
2363;DHT22;64265;51.664;7.626;2023-11-22T02:54:47;21.10;91.70
2363;DHT22;64265;51.664;7.626;2023-11-22T02:57:14;21.10;91.70
2363;DHT22;64265;51.664;7.626;2023-11-22T02:59:43;21.10;91.70
2363;DHT22;64265;51.664;7.626;2023-11-22T03:02:10;21.10;91.70
2363;DHT22;64265;51.664;7.626;2023-11-22T03:04:36;21.10;91.70
2363;DHT22;64265;51.664;7.626;2023-11-22T03:07:04;21.00;91.70
2363;DHT22;64265;51.664;7.626;2023-11-22T03:09:31;21.10;91.70
2363;DHT22;64265;51.664;7.626;2023-11-22T03:11:58;21.10;91.70
2363;DHT22;64265;51.664;7.626;2023-11-22T03:14:25;21.10;91.70
2363;DHT22;64265;51.664;7.626;2023-11-22T03:16:53;21.10;92.10
2363;DHT22;64265;51.664;7.626;2023-11-22T03:19:20;21.00;91.70
2363;DHT22;64265;51.664;7.626;2023-11-22T03:21:46;21.00;91.70
2363;DHT22;64265;51.664;7.626;2023-11-22T03:24:13;21.00;91.70
2363;DHT22;64265;51.664;7.626;2023-11-22T03:26:41;21.00;91.70
2363;DHT22;64265;51.664;7.626;2023-11-22T03:29:08;21.00;91.70
2363;DHT22;64265;51.664;7.626;2023-11-22T03:31:34;21.00;91.70
2363;DHT22;64265;51.664;7.626;2023-11-22T03:34:04;21.00;91.70
2363;DHT22;64265;51.664;7.626;2023-11-22T03:36:31;21.00;91.70
2363;DHT22;64265;51.664;7.626;2023-11-22T03:38:58;21.00;91.70
2363;DHT22;64265;51.664;7.626;2023-11-22T03:41:24;21.00;91.70
2363;DHT22;64265;51.664;7.626;2023-11-22T03:43:51;21.00;92.10
2363;DHT22;64265;51.664;7.626;2023-11-22T03:46:18;21.00;91.70
2363;DHT22;64265;51.664;7.626;2023-11-22T03:48:44;21.00;91.70
2363;DHT22;64265;51.664;7.626;2023-11-22T03:51:13;21.00;91.70
2363;DHT22;64265;51.664;7.626;2023-11-22T03:53:41;21.00;91.70
2363;DHT22;64265;51.664;7.626;2023-11-22T03:56:08;21.00;91.70
2363;DHT22;64265;51.664;7.626;2023-11-22T03:58:35;21.00;91.70
2363;DHT22;64265;51.664;7.626;2023-11-22T04:01:02;21.00;91.70
2363;DHT22;64265;51.664;7.626;2023-11-22T04:03:29;21.00;91.70
2363;DHT22;64265;51.664;7.626;2023-11-22T04:05:55;21.00;91.70
2363;DHT22;64265;51.664;7.626;2023-11-22T04:08:24;21.00;91.70
2363;DHT22;64265;51.664;7.626;2023-11-22T04:10:51;21.00;91.70
2363;DHT22;64265;51.664;7.626;2023-11-22T04:13:17;21.00;91.70
2363;DHT22;64265;51.664;7.626;2023-11-22T04:15:44;21.00;91.70
2363;DHT22;64265;51.664;7.626;2023-11-22T04:18:11;21.00;91.70
2363;DHT22;64265;51.664;7.626;2023-11-22T04:20:38;21.00;91.70
2363;DHT22;64265;51.664;7.626;2023-11-22T04:23:05;20.90;91.70
2363;DHT22;64265;51.664;7.626;2023-11-22T04:25:33;21.00;91.70
2363;DHT22;64265;51.664;7.626;2023-11-22T04:28:00;21.00;91.70
2363;DHT22;64265;51.664;7.626;2023-11-22T04:30:27;21.00;91.70
2363;DHT22;64265;51.664;7.626;2023-11-22T04:32:54;21.00;91.70
2363;DHT22;64265;51.664;7.626;2023-11-22T04:35:20;21.00;91.70
2363;DHT22;64265;51.664;7.626;2023-11-22T04:37:47;21.00;91.70
2363;DHT22;64265;51.664;7.626;2023-11-22T04:40:13;20.90;91.60
2363;DHT22;64265;51.664;7.626;2023-11-22T04:42:42;20.90;91.60
2363;DHT22;64265;51.664;7.626;2023-11-22T04:45:09;21.00;91.70
2363;DHT22;64265;51.664;7.626;2023-11-22T04:47:36;21.00;91.70
2363;DHT22;64265;51.664;7.626;2023-11-22T04:50:03;20.90;91.70
2363;DHT22;64265;51.664;7.626;2023-11-22T04:52:30;21.00;91.70
2363;DHT22;64265;51.664;7.626;2023-11-22T04:54:57;20.90;91.70
2363;DHT22;64265;51.664;7.626;2023-11-22T04:57:24;20.90;91.60
2363;DHT22;64265;51.664;7.626;2023-11-22T04:59:52;20.90;91.50
2363;DHT22;64265;51.664;7.626;2023-11-22T05:02:19;20.90;91.60
2363;DHT22;64265;51.664;7.626;2023-11-22T05:04:46;20.90;91.60
2363;DHT22;64265;51.664;7.626;2023-11-22T05:07:14;20.90;91.60
2363;DHT22;64265;51.664;7.626;2023-11-22T05:09:41;20.90;91.60
2363;DHT22;64265;51.664;7.626;2023-11-22T05:12:09;20.90;91.60
2363;DHT22;64265;51.664;7.626;2023-11-22T05:14:36;20.90;91.60
2363;DHT22;64265;51.664;7.626;2023-11-22T05:17:04;20.90;91.60
2363;DHT22;64265;51.664;7.626;2023-11-22T05:19:31;20.90;91.60
2363;DHT22;64265;51.664;7.626;2023-11-22T05:21:57;20.90;91.60
2363;DHT22;64265;51.664;7.626;2023-11-22T05:24:24;20.90;91.70
2363;DHT22;64265;51.664;7.626;2023-11-22T05:26:51;20.90;91.70
2363;DHT22;64265;51.664;7.626;2023-11-22T05:29:18;20.90;91.60
2363;DHT22;64265;51.664;7.626;2023-11-22T05:31:44;20.90;91.60
2363;DHT22;64265;51.664;7.626;2023-11-22T05:34:13;20.90;91.60
2363;DHT22;64265;51.664;7.626;2023-11-22T05:36:39;20.90;91.60
2363;DHT22;64265;51.664;7.626;2023-11-22T05:39:06;20.90;91.60
2363;DHT22;64265;51.664;7.626;2023-11-22T05:41:34;20.90;91.70
2363;DHT22;64265;51.664;7.626;2023-11-22T05:44:01;20.90;91.70
2363;DHT22;64265;51.664;7.626;2023-11-22T05:46:29;20.90;91.60
2363;DHT22;64265;51.664;7.626;2023-11-22T05:48:55;20.90;91.60
2363;DHT22;64265;51.664;7.626;2023-11-22T05:51:23;20.90;91.60
2363;DHT22;64265;51.664;7.626;2023-11-22T05:53:50;20.90;91.60
2363;DHT22;64265;51.664;7.626;2023-11-22T05:56:17;20.90;91.60
2363;DHT22;64265;51.664;7.626;2023-11-22T05:58:44;20.90;92.00
2363;DHT22;64265;51.664;7.626;2023-11-22T06:01:11;20.90;91.60
2363;DHT22;64265;51.664;7.626;2023-11-22T06:03:38;20.90;91.60
2363;DHT22;64265;51.664;7.626;2023-11-22T06:06:05;20.90;91.70
2363;DHT22;64265;51.664;7.626;2023-11-22T06:08:34;20.90;91.60
2363;DHT22;64265;51.664;7.626;2023-11-22T06:11:01;20.90;91.60
2363;DHT22;64265;51.664;7.626;2023-11-22T06:13:28;20.90;91.70
2363;DHT22;64265;51.664;7.626;2023-11-22T06:15:55;20.90;91.70
2363;DHT22;64265;51.664;7.626;2023-11-22T06:18:22;20.90;91.60
2363;DHT22;64265;51.664;7.626;2023-11-22T06:20:54;20.90;91.60
2363;DHT22;64265;51.664;7.626;2023-11-22T06:23:21;20.90;91.60
2363;DHT22;64265;51.664;7.626;2023-11-22T06:25:49;20.90;91.60
2363;DHT22;64265;51.664;7.626;2023-11-22T06:28:16;20.90;91.60
2363;DHT22;64265;51.664;7.626;2023-11-22T06:30:43;20.90;91.60
2363;DHT22;64265;51.664;7.626;2023-11-22T06:33:10;20.90;91.70
2363;DHT22;64265;51.664;7.626;2023-11-22T06:35:36;20.90;91.70
2363;DHT22;64265;51.664;7.626;2023-11-22T06:38:03;20.90;91.60
2363;DHT22;64265;51.664;7.626;2023-11-22T06:40:30;20.90;91.70
2363;DHT22;64265;51.664;7.626;2023-11-22T06:42:58;20.90;91.60
2363;DHT22;64265;51.664;7.626;2023-11-22T06:45:25;20.90;91.60
2363;DHT22;64265;51.664;7.626;2023-11-22T06:47:52;20.90;91.60
2363;DHT22;64265;51.664;7.626;2023-11-22T06:50:18;20.90;91.60
2363;DHT22;64265;51.664;7.626;2023-11-22T06:52:46;20.90;91.60
2363;DHT22;64265;51.664;7.626;2023-11-22T06:55:15;20.90;91.60
2363;DHT22;64265;51.664;7.626;2023-11-22T06:57:43;20.90;91.60
2363;DHT22;64265;51.664;7.626;2023-11-22T07:00:11;20.80;91.50
2363;DHT22;64265;51.664;7.626;2023-11-22T07:02:38;20.80;91.50
2363;DHT22;64265;51.664;7.626;2023-11-22T07:05:06;20.80;91.50
2363;DHT22;64265;51.664;7.626;2023-11-22T07:07:34;20.80;91.50
2363;DHT22;64265;51.664;7.626;2023-11-22T07:10:01;20.80;91.50
2363;DHT22;64265;51.664;7.626;2023-11-22T07:12:30;20.80;91.50
2363;DHT22;64265;51.664;7.626;2023-11-22T07:14:57;20.80;91.50
2363;DHT22;64265;51.664;7.626;2023-11-22T07:17:26;20.80;91.50
2363;DHT22;64265;51.664;7.626;2023-11-22T07:19:54;20.80;91.50
2363;DHT22;64265;51.664;7.626;2023-11-22T07:22:21;20.80;91.50
2363;DHT22;64265;51.664;7.626;2023-11-22T07:24:49;20.70;91.40
2363;DHT22;64265;51.664;7.626;2023-11-22T07:27:17;20.70;91.50
2363;DHT22;64265;51.664;7.626;2023-11-22T07:29:45;20.70;91.50
2363;DHT22;64265;51.664;7.626;2023-11-22T07:32:12;20.80;91.60
2363;DHT22;64265;51.664;7.626;2023-11-22T07:34:41;20.80;91.60
2363;DHT22;64265;51.664;7.626;2023-11-22T07:37:08;20.80;91.60
2363;DHT22;64265;51.664;7.626;2023-11-22T07:39:35;20.80;91.60
2363;DHT22;64265;51.664;7.626;2023-11-22T07:42:04;20.80;91.70
2363;DHT22;64265;51.664;7.626;2023-11-22T07:44:33;20.80;91.70
2363;DHT22;64265;51.664;7.626;2023-11-22T07:47:01;20.80;91.70
2363;DHT22;64265;51.664;7.626;2023-11-22T07:49:28;20.90;91.70
2363;DHT22;64265;51.664;7.626;2023-11-22T07:51:57;20.90;91.80
2363;DHT22;64265;51.664;7.626;2023-11-22T07:54:24;20.90;91.70
2363;DHT22;64265;51.664;7.626;2023-11-22T07:56:50;20.90;91.70
2363;DHT22;64265;51.664;7.626;2023-11-22T07:59:17;20.90;91.70
2363;DHT22;64265;51.664;7.626;2023-11-22T08:01:45;20.90;91.70
2363;DHT22;64265;51.664;7.626;2023-11-22T08:04:13;21.00;91.70
2363;DHT22;64265;51.664;7.626;2023-11-22T08:06:40;21.00;91.80
2363;DHT22;64265;51.664;7.626;2023-11-22T08:09:08;21.00;91.70
2363;DHT22;64265;51.664;7.626;2023-11-22T08:11:35;21.00;91.70
2363;DHT22;64265;51.664;7.626;2023-11-22T08:14:02;21.00;91.70
2363;DHT22;64265;51.664;7.626;2023-11-22T08:16:29;21.00;91.70
2363;DHT22;64265;51.664;7.626;2023-11-22T08:18:56;21.00;91.70
2363;DHT22;64265;51.664;7.626;2023-11-22T08:21:23;21.00;91.70
2363;DHT22;64265;51.664;7.626;2023-11-22T08:23:50;21.00;91.60
2363;DHT22;64265;51.664;7.626;2023-11-22T08:26:20;21.00;91.60
2363;DHT22;64265;51.664;7.626;2023-11-22T08:28:46;21.10;91.70
2363;DHT22;64265;51.664;7.626;2023-11-22T08:31:13;21.10;91.70
2363;DHT22;64265;51.664;7.626;2023-11-22T08:33:42;21.10;91.70
2363;DHT22;64265;51.664;7.626;2023-11-22T08:36:09;21.10;91.70
2363;DHT22;64265;51.664;7.626;2023-11-22T08:38:36;21.10;91.60
2363;DHT22;64265;51.664;7.626;2023-11-22T08:41:06;21.10;91.60
2363;DHT22;64265;51.664;7.626;2023-11-22T08:43:35;21.20;91.70
2363;DHT22;64265;51.664;7.626;2023-11-22T08:46:02;21.10;91.60
2363;DHT22;64265;51.664;7.626;2023-11-22T08:48:30;21.10;91.60
2363;DHT22;64265;51.664;7.626;2023-11-22T08:50:56;21.20;91.70
2363;DHT22;64265;51.664;7.626;2023-11-22T08:53:24;21.10;91.60
2363;DHT22;64265;51.664;7.626;2023-11-22T08:55:50;21.20;91.70
2363;DHT22;64265;51.664;7.626;2023-11-22T08:58:18;21.20;91.60
2363;DHT22;64265;51.664;7.626;2023-11-22T09:00:46;21.20;92.00
2363;DHT22;64265;51.664;7.626;2023-11-22T09:03:13;21.20;91.60
2363;DHT22;64265;51.664;7.626;2023-11-22T09:05:42;21.20;91.60
2363;DHT22;64265;51.664;7.626;2023-11-22T09:08:09;21.20;91.60
2363;DHT22;64265;51.664;7.626;2023-11-22T09:10:38;21.20;91.60
2363;DHT22;64265;51.664;7.626;2023-11-22T09:13:06;21.20;91.50
2363;DHT22;64265;51.664;7.626;2023-11-22T09:15:33;21.20;91.50
2363;DHT22;64265;51.664;7.626;2023-11-22T09:18:02;21.20;91.50
2363;DHT22;64265;51.664;7.626;2023-11-22T09:20:29;21.20;91.50
2363;DHT22;64265;51.664;7.626;2023-11-22T09:22:56;21.20;91.50
2363;DHT22;64265;51.664;7.626;2023-11-22T09:25:25;21.20;91.60
2363;DHT22;64265;51.664;7.626;2023-11-22T09:27:54;21.30;91.60
2363;DHT22;64265;51.664;7.626;2023-11-22T09:30:25;21.30;92.00
2363;DHT22;64265;51.664;7.626;2023-11-22T09:33:02;21.30;91.90
2363;DHT22;64265;51.664;7.626;2023-11-22T09:35:30;21.30;91.90
2363;DHT22;64265;51.664;7.626;2023-11-22T09:37:58;21.30;91.80
2363;DHT22;64265;51.664;7.626;2023-11-22T09:40:26;21.30;91.80
2363;DHT22;64265;51.664;7.626;2023-11-22T09:42:54;21.30;91.80
2363;DHT22;64265;51.664;7.626;2023-11-22T09:45:21;21.30;91.80
2363;DHT22;64265;51.664;7.626;2023-11-22T09:47:48;21.30;91.80
2363;DHT22;64265;51.664;7.626;2023-11-22T09:50:19;21.30;91.80
2363;DHT22;64265;51.664;7.626;2023-11-22T09:52:50;21.30;92.10
2363;DHT22;64265;51.664;7.626;2023-11-22T09:55:18;21.30;91.70
2363;DHT22;64265;51.664;7.626;2023-11-22T09:57:45;21.30;91.70
2363;DHT22;64265;51.664;7.626;2023-11-22T10:00:14;21.30;91.70
2363;DHT22;64265;51.664;7.626;2023-11-22T10:02:44;21.30;91.60
2363;DHT22;64265;51.664;7.626;2023-11-22T10:05:11;21.30;91.60
2363;DHT22;64265;51.664;7.626;2023-11-22T10:07:39;21.40;91.60
2363;DHT22;64265;51.664;7.626;2023-11-22T10:10:07;21.40;91.60
2363;DHT22;64265;51.664;7.626;2023-11-22T10:12:36;21.40;91.50
2363;DHT22;64265;51.664;7.626;2023-11-22T10:15:13;21.30;91.40
2363;DHT22;64265;51.664;7.626;2023-11-22T10:17:40;21.40;91.40
2363;DHT22;64265;51.664;7.626;2023-11-22T10:20:08;21.40;91.40
2363;DHT22;64265;51.664;7.626;2023-11-22T10:22:47;21.40;91.30
2363;DHT22;64265;51.664;7.626;2023-11-22T10:25:14;21.40;91.40
2363;DHT22;64265;51.664;7.626;2023-11-22T10:27:44;21.40;91.40
2363;DHT22;64265;51.664;7.626;2023-11-22T10:30:12;21.40;91.30
2363;DHT22;64265;51.664;7.626;2023-11-22T10:32:41;21.40;91.40
2363;DHT22;64265;51.664;7.626;2023-11-22T10:35:08;21.40;91.30
2363;DHT22;64265;51.664;7.626;2023-11-22T10:37:35;21.40;91.30
2363;DHT22;64265;51.664;7.626;2023-11-22T10:40:05;21.40;91.30
2363;DHT22;64265;51.664;7.626;2023-11-22T10:42:33;21.40;91.20
2363;DHT22;64265;51.664;7.626;2023-11-22T10:45:01;21.40;91.20
2363;DHT22;64265;51.664;7.626;2023-11-22T10:47:29;21.40;91.30
2363;DHT22;64265;51.664;7.626;2023-11-22T10:49:57;21.40;91.20
2363;DHT22;64265;51.664;7.626;2023-11-22T10:52:27;21.40;91.10
2363;DHT22;64265;51.664;7.626;2023-11-22T10:55:01;21.40;91.10
2363;DHT22;64265;51.664;7.626;2023-11-22T10:57:31;21.30;91.00
2363;DHT22;64265;51.664;7.626;2023-11-22T11:00:02;21.40;91.00
2363;DHT22;64265;51.664;7.626;2023-11-22T11:02:35;21.30;86.80
2363;DHT22;64265;51.664;7.626;2023-11-22T11:05:11;21.30;87.80
2363;DHT22;64265;51.664;7.626;2023-11-22T11:07:43;21.30;87.60
2363;DHT22;64265;51.664;7.626;2023-11-22T11:10:12;21.30;88.20
2363;DHT22;64265;51.664;7.626;2023-11-22T11:12:41;21.30;88.60
2363;DHT22;64265;51.664;7.626;2023-11-22T11:15:09;21.30;89.00
2363;DHT22;64265;51.664;7.626;2023-11-22T11:17:36;21.40;89.20
2363;DHT22;64265;51.664;7.626;2023-11-22T11:20:06;21.40;89.50
2363;DHT22;64265;51.664;7.626;2023-11-22T11:22:33;21.40;89.70
2363;DHT22;64265;51.664;7.626;2023-11-22T11:25:01;21.40;90.00
2363;DHT22;64265;51.664;7.626;2023-11-22T11:27:33;21.40;90.10
2363;DHT22;64265;51.664;7.626;2023-11-22T11:30:03;21.40;90.20
2363;DHT22;64265;51.664;7.626;2023-11-22T11:32:50;21.40;90.30
2363;DHT22;64265;51.664;7.626;2023-11-22T11:35:17;21.50;90.30
2363;DHT22;64265;51.664;7.626;2023-11-22T11:37:46;21.50;90.40
2363;DHT22;64265;51.664;7.626;2023-11-22T11:40:26;21.50;90.50
2363;DHT22;64265;51.664;7.626;2023-11-22T11:42:54;21.50;90.40
2363;DHT22;64265;51.664;7.626;2023-11-22T11:45:23;21.50;90.50
2363;DHT22;64265;51.664;7.626;2023-11-22T11:47:50;21.50;90.50
2363;DHT22;64265;51.664;7.626;2023-11-22T11:50:17;21.60;90.60
2363;DHT22;64265;51.664;7.626;2023-11-22T11:52:44;21.60;90.60
2363;DHT22;64265;51.664;7.626;2023-11-22T11:55:11;21.60;90.70
2363;DHT22;64265;51.664;7.626;2023-11-22T11:57:37;21.60;90.70
2363;DHT22;64265;51.664;7.626;2023-11-22T12:00:05;21.60;90.70
2363;DHT22;64265;51.664;7.626;2023-11-22T12:02:36;21.60;90.80
2363;DHT22;64265;51.664;7.626;2023-11-22T12:05:03;21.60;90.80
2363;DHT22;64265;51.664;7.626;2023-11-22T12:07:34;21.60;81.20
2363;DHT22;64265;51.664;7.626;2023-11-22T12:10:00;21.40;71.90
2363;DHT22;64265;51.664;7.626;2023-11-22T12:12:27;21.40;79.20
2363;DHT22;64265;51.664;7.626;2023-11-22T12:14:55;21.40;79.50
2363;DHT22;64265;51.664;7.626;2023-11-22T12:17:22;21.50;81.30
2363;DHT22;64265;51.664;7.626;2023-11-22T12:19:50;21.50;81.60
2363;DHT22;64265;51.664;7.626;2023-11-22T12:22:17;21.50;82.10
2363;DHT22;64265;51.664;7.626;2023-11-22T12:24:45;21.50;82.70
2363;DHT22;64265;51.664;7.626;2023-11-22T12:27:12;21.60;83.10
2363;DHT22;64265;51.664;7.626;2023-11-22T12:29:39;21.60;83.60
2363;DHT22;64265;51.664;7.626;2023-11-22T12:32:07;21.60;84.20
2363;DHT22;64265;51.664;7.626;2023-11-22T12:34:34;21.60;84.40
2363;DHT22;64265;51.664;7.626;2023-11-22T12:37:02;21.70;85.10
2363;DHT22;64265;51.664;7.626;2023-11-22T12:39:29;21.60;85.30
2363;DHT22;64265;51.664;7.626;2023-11-22T12:41:57;21.70;85.60
2363;DHT22;64265;51.664;7.626;2023-11-22T12:44:24;21.70;86.20
2363;DHT22;64265;51.664;7.626;2023-11-22T12:46:52;21.70;86.60
2363;DHT22;64265;51.664;7.626;2023-11-22T12:49:22;21.70;87.00
2363;DHT22;64265;51.664;7.626;2023-11-22T12:51:50;21.70;87.20
2363;DHT22;64265;51.664;7.626;2023-11-22T12:54:19;21.70;87.70
2363;DHT22;64265;51.664;7.626;2023-11-22T12:56:48;21.70;88.30
2363;DHT22;64265;51.664;7.626;2023-11-22T12:59:16;21.70;88.80
2363;DHT22;64265;51.664;7.626;2023-11-22T13:01:43;21.80;89.60
2363;DHT22;64265;51.664;7.626;2023-11-22T13:04:10;21.80;90.10
2363;DHT22;64265;51.664;7.626;2023-11-22T13:06:37;21.80;90.30
2363;DHT22;64265;51.664;7.626;2023-11-22T13:09:04;21.80;90.40
2363;DHT22;64265;51.664;7.626;2023-11-22T13:11:33;21.80;91.00
2363;DHT22;64265;51.664;7.626;2023-11-22T13:14:00;21.90;90.70
2363;DHT22;64265;51.664;7.626;2023-11-22T13:16:26;21.90;90.70
2363;DHT22;64265;51.664;7.626;2023-11-22T13:18:53;21.90;91.00
2363;DHT22;64265;51.664;7.626;2023-11-22T13:21:20;21.90;91.20
2363;DHT22;64265;51.664;7.626;2023-11-22T13:23:47;21.80;91.30
2363;DHT22;64265;51.664;7.626;2023-11-22T13:26:14;21.90;91.50
2363;DHT22;64265;51.664;7.626;2023-11-22T13:28:42;21.90;91.80
2363;DHT22;64265;51.664;7.626;2023-11-22T13:31:09;21.90;91.90
2363;DHT22;64265;51.664;7.626;2023-11-22T13:33:37;21.90;92.10
2363;DHT22;64265;51.664;7.626;2023-11-22T13:36:09;21.90;92.30
2363;DHT22;64265;51.664;7.626;2023-11-22T13:38:36;21.90;92.40
2363;DHT22;64265;51.664;7.626;2023-11-22T13:41:04;21.90;92.40
2363;DHT22;64265;51.664;7.626;2023-11-22T13:43:31;21.90;92.60
2363;DHT22;64265;51.664;7.626;2023-11-22T13:46:00;21.90;92.60
2363;DHT22;64265;51.664;7.626;2023-11-22T13:48:27;21.90;92.70
2363;DHT22;64265;51.664;7.626;2023-11-22T13:50:55;21.90;93.00
2363;DHT22;64265;51.664;7.626;2023-11-22T13:53:21;21.90;92.80
2363;DHT22;64265;51.664;7.626;2023-11-22T13:55:48;21.90;92.90
2363;DHT22;64265;51.664;7.626;2023-11-22T13:58:17;21.90;93.00
2363;DHT22;64265;51.664;7.626;2023-11-22T14:00:44;21.90;93.10
2363;DHT22;64265;51.664;7.626;2023-11-22T14:03:14;21.90;93.10
2363;DHT22;64265;51.664;7.626;2023-11-22T14:05:41;21.90;93.20
2363;DHT22;64265;51.664;7.626;2023-11-22T14:08:08;22.00;93.20
2363;DHT22;64265;51.664;7.626;2023-11-22T14:10:35;22.00;93.40
2363;DHT22;64265;51.664;7.626;2023-11-22T14:13:02;22.00;93.50
2363;DHT22;64265;51.664;7.626;2023-11-22T14:15:30;22.00;93.50
2363;DHT22;64265;51.664;7.626;2023-11-22T14:17:57;22.00;93.30
2363;DHT22;64265;51.664;7.626;2023-11-22T14:20:25;22.00;93.30
2363;DHT22;64265;51.664;7.626;2023-11-22T14:22:52;22.00;93.40
2363;DHT22;64265;51.664;7.626;2023-11-22T14:25:18;21.90;93.10
2363;DHT22;64265;51.664;7.626;2023-11-22T14:27:46;21.90;93.10
2363;DHT22;64265;51.664;7.626;2023-11-22T14:30:17;21.90;93.00
2363;DHT22;64265;51.664;7.626;2023-11-22T14:32:46;21.90;93.10
2363;DHT22;64265;51.664;7.626;2023-11-22T14:35:13;21.80;92.90
2363;DHT22;64265;51.664;7.626;2023-11-22T14:37:41;21.90;92.90
2363;DHT22;64265;51.664;7.626;2023-11-22T14:40:08;21.90;92.90
2363;DHT22;64265;51.664;7.626;2023-11-22T14:42:39;21.80;92.90
2363;DHT22;64265;51.664;7.626;2023-11-22T14:45:07;21.80;92.70
2363;DHT22;64265;51.664;7.626;2023-11-22T14:47:34;21.90;92.50
2363;DHT22;64265;51.664;7.626;2023-11-22T14:50:02;21.80;92.30
2363;DHT22;64265;51.664;7.626;2023-11-22T14:52:30;21.80;92.10
2363;DHT22;64265;51.664;7.626;2023-11-22T14:54:58;21.80;92.30
2363;DHT22;64265;51.664;7.626;2023-11-22T14:57:26;21.80;91.90
2363;DHT22;64265;51.664;7.626;2023-11-22T14:59:53;21.80;91.80
2363;DHT22;64265;51.664;7.626;2023-11-22T15:02:20;21.80;91.80
2363;DHT22;64265;51.664;7.626;2023-11-22T15:04:47;21.80;91.80
2363;DHT22;64265;51.664;7.626;2023-11-22T15:07:13;21.80;91.70
2363;DHT22;64265;51.664;7.626;2023-11-22T15:09:40;21.80;91.70
2363;DHT22;64265;51.664;7.626;2023-11-22T15:12:08;21.80;91.70
2363;DHT22;64265;51.664;7.626;2023-11-22T15:14:35;21.80;91.60
2363;DHT22;64265;51.664;7.626;2023-11-22T15:17:02;21.70;91.60
2363;DHT22;64265;51.664;7.626;2023-11-22T15:19:30;21.70;91.60
2363;DHT22;64265;51.664;7.626;2023-11-22T15:21:57;21.70;91.50
2363;DHT22;64265;51.664;7.626;2023-11-22T15:24:24;21.70;91.50
2363;DHT22;64265;51.664;7.626;2023-11-22T15:26:51;21.70;91.50
2363;DHT22;64265;51.664;7.626;2023-11-22T15:29:19;21.70;91.60
2363;DHT22;64265;51.664;7.626;2023-11-22T15:31:46;21.70;91.50
2363;DHT22;64265;51.664;7.626;2023-11-22T15:34:13;21.70;91.50
2363;DHT22;64265;51.664;7.626;2023-11-22T15:36:40;21.70;91.60
2363;DHT22;64265;51.664;7.626;2023-11-22T15:39:07;21.70;91.70
2363;DHT22;64265;51.664;7.626;2023-11-22T15:41:37;21.70;91.70
2363;DHT22;64265;51.664;7.626;2023-11-22T15:44:04;21.70;91.80
2363;DHT22;64265;51.664;7.626;2023-11-22T15:46:33;21.70;91.90
2363;DHT22;64265;51.664;7.626;2023-11-22T15:49:00;21.70;92.00